Archival Weather

Agadez

Agadez, Niger (DRZA)

Report from: Thursday, September 21, 2023 6:00 PM WAT
Current time: Monday, July 22, 2024 11:03 AM WAT

Current weather – Weather history – Daily summaries
Weather forecast

Temperature39.0°C (102.2°F)
Heat index36.5°C (97.8°F)
Dew point6.0°C (42.8°F)
Winds 6 kts (3.1 m/s, 6.9 mph) Southeast (140°)
Clouds Sky clear
Altimeter29.80 in.Hg (1009 mB)
Relative humidity13 %
Density altitude2,983 ft. (909 m)
Remarks Ceiling and visibility OK
Flight conditions Visual Meteorological Conditions
Raw dataDRZA 211700Z 14006KT CAVOK 39/06 Q1009
An error has occurred. This application may no longer respond until reloaded. Reload 🗙